sensor_id;sensor_type;location;lat;lon;timestamp;pressure;altitude;pressure_sealevel;temperature;humidity
80585;BME280;70137;56.482;9.154;2024-01-06T00:02:03;101429.69;;;-9.44;98.87
80585;BME280;70137;56.482;9.154;2024-01-06T00:04:28;101440.59;;;-9.45;99.51
80585;BME280;70137;56.482;9.154;2024-01-06T00:06:54;101438.09;;;-9.48;99.17
80585;BME280;70137;56.482;9.154;2024-01-06T00:09:19;101438.09;;;-9.48;98.56
80585;BME280;70137;56.482;9.154;2024-01-06T00:11:44;101441.50;;;-9.53;99.46
80585;BME280;70137;56.482;9.154;2024-01-06T00:14:09;101447.38;;;-9.54;98.36
80585;BME280;70137;56.482;9.154;2024-01-06T00:16:35;101444.03;;;-9.53;98.93
80585;BME280;70137;56.482;9.154;2024-01-06T00:19:00;101448.25;;;-9.58;98.88
80585;BME280;70137;56.482;9.154;2024-01-06T00:21:26;101454.97;;;-9.60;98.84
80585;BME280;70137;56.482;9.154;2024-01-06T00:23:51;101451.69;;;-9.63;99.48
80585;BME280;70137;56.482;9.154;2024-01-06T00:26:16;101450.88;;;-9.67;99.37
80585;BME280;70137;56.482;9.154;2024-01-06T00:28:42;101447.53;;;-9.69;99.04
80585;BME280;70137;56.482;9.154;2024-01-06T00:31:07;101449.22;;;-9.68;98.47
80585;BME280;70137;56.482;9.154;2024-01-06T00:33:32;101461.78;;;-9.69;98.36
80585;BME280;70137;56.482;9.154;2024-01-06T00:35:58;101458.47;;;-9.73;98.80
80585;BME280;70137;56.482;9.154;2024-01-06T00:38:23;101460.16;;;-9.75;99.28
80585;BME280;70137;56.482;9.154;2024-01-06T00:40:48;101464.34;;;-9.75;98.79
80585;BME280;70137;56.482;9.154;2024-01-06T00:43:14;101462.72;;;-9.78;99.10
80585;BME280;70137;56.482;9.154;2024-01-06T00:45:39;101468.56;;;-9.79;98.42
80585;BME280;70137;56.482;9.154;2024-01-06T00:48:05;101465.22;;;-9.78;98.91
80585;BME280;70137;56.482;9.154;2024-01-06T00:50:30;101471.91;;;-9.78;98.67
80585;BME280;70137;56.482;9.154;2024-01-06T00:52:55;101473.59;;;-9.79;98.50
80585;BME280;70137;56.482;9.154;2024-01-06T00:55:21;101472.75;;;-9.78;98.79
80585;BME280;70137;56.482;9.154;2024-01-06T00:57:47;101475.28;;;-9.81;98.32
80585;BME280;70137;56.482;9.154;2024-01-06T01:00:13;101469.44;;;-9.82;98.67
80585;BME280;70137;56.482;9.154;2024-01-06T01:02:38;101481.16;;;-9.85;97.94
80585;BME280;70137;56.482;9.154;2024-01-06T01:05:04;101483.69;;;-9.87;98.55
80585;BME280;70137;56.482;9.154;2024-01-06T01:07:30;101481.22;;;-9.90;98.20
80585;BME280;70137;56.482;9.154;2024-01-06T01:09:56;101484.56;;;-9.88;98.22
80585;BME280;70137;56.482;9.154;2024-01-06T01:12:21;101489.59;;;-9.89;98.89
80585;BME280;70137;56.482;9.154;2024-01-06T01:14:47;101490.41;;;-9.89;98.91
80585;BME280;70137;56.482;9.154;2024-01-06T01:17:12;101492.91;;;-9.87;98.66
80585;BME280;70137;56.482;9.154;2024-01-06T01:19:37;101497.13;;;-9.89;98.78
80585;BME280;70137;56.482;9.154;2024-01-06T01:22:03;101498.78;;;-9.88;98.47
80585;BME280;70137;56.482;9.154;2024-01-06T01:24:28;101506.34;;;-9.94;98.55
80585;BME280;70137;56.482;9.154;2024-01-06T01:26:54;101516.41;;;-9.96;98.73
80585;BME280;70137;56.482;9.154;2024-01-06T01:29:19;101513.06;;;-9.96;98.87
80585;BME280;70137;56.482;9.154;2024-01-06T01:31:48;101523.06;;;-9.95;98.76
80585;BME280;70137;56.482;9.154;2024-01-06T01:34:14;101523.06;;;-9.95;98.04
80585;BME280;70137;56.482;9.154;2024-01-06T01:36:40;101520.56;;;-9.95;98.46
80585;BME280;70137;56.482;9.154;2024-01-06T01:39:05;101523.09;;;-9.93;98.04
80585;BME280;70137;56.482;9.154;2024-01-06T01:41:30;101524.75;;;-9.95;98.54
80585;BME280;70137;56.482;9.154;2024-01-06T01:43:56;101523.97;;;-9.99;98.81
80585;BME280;70137;56.482;9.154;2024-01-06T01:46:26;101525.66;;;-10.01;98.29
80585;BME280;70137;56.482;9.154;2024-01-06T01:48:52;101528.97;;;-9.99;98.80
80585;BME280;70137;56.482;9.154;2024-01-06T01:51:19;101528.09;;;-9.96;98.62
80585;BME280;70137;56.482;9.154;2024-01-06T01:53:44;101533.94;;;-9.93;98.50
80585;BME280;70137;56.482;9.154;2024-01-06T01:56:10;101528.91;;;-9.94;98.47
80585;BME280;70137;56.482;9.154;2024-01-06T01:58:36;101534.00;;;-9.99;98.88
80585;BME280;70137;56.482;9.154;2024-01-06T02:01:02;101536.56;;;-10.03;98.51
80585;BME280;70137;56.482;9.154;2024-01-06T02:03:30;101540.72;;;-10.05;98.38
80585;BME280;70137;56.482;9.154;2024-01-06T02:05:55;101543.22;;;-10.05;98.81
80585;BME280;70137;56.482;9.154;2024-01-06T02:08:20;101538.25;;;-10.08;98.84
80585;BME280;70137;56.482;9.154;2024-01-06T02:10:46;101544.97;;;-10.14;98.60
80585;BME280;70137;56.482;9.154;2024-01-06T02:13:12;101543.34;;;-10.18;98.42
80585;BME280;70137;56.482;9.154;2024-01-06T02:15:37;101555.03;;;-10.17;99.17
80585;BME280;70137;56.482;9.154;2024-01-06T02:18:03;101553.34;;;-10.13;98.54
80585;BME280;70137;56.482;9.154;2024-01-06T02:20:30;101556.69;;;-10.13;99.15
80585;BME280;70137;56.482;9.154;2024-01-06T02:22:56;101557.53;;;-10.15;98.74
80585;BME280;70137;56.482;9.154;2024-01-06T02:25:23;101564.22;;;-10.13;98.77
80585;BME280;70137;56.482;9.154;2024-01-06T02:27:49;101560.03;;;-10.15;99.29
80585;BME280;70137;56.482;9.154;2024-01-06T02:30:14;101574.25;;;-10.17;99.43
80585;BME280;70137;56.482;9.154;2024-01-06T02:32:40;101575.09;;;-10.17;99.03
80585;BME280;70137;56.482;9.154;2024-01-06T02:35:05;101574.28;;;-10.19;98.90
80585;BME280;70137;56.482;9.154;2024-01-06T02:37:30;101582.59;;;-10.14;99.64
80585;BME280;70137;56.482;9.154;2024-01-06T02:39:56;101575.81;;;-10.04;99.51
80585;BME280;70137;56.482;9.154;2024-01-06T02:42:21;101589.13;;;-9.94;99.45
80585;BME280;70137;56.482;9.154;2024-01-06T02:44:47;101582.34;;;-9.85;99.25
80585;BME280;70137;56.482;9.154;2024-01-06T02:47:12;101582.28;;;-9.74;99.51
80585;BME280;70137;56.482;9.154;2024-01-06T02:49:39;101588.81;;;-9.59;100.00
80585;BME280;70137;56.482;9.154;2024-01-06T02:52:04;101587.84;;;-9.46;98.99
80585;BME280;70137;56.482;9.154;2024-01-06T02:54:30;101588.59;;;-9.35;100.00
80585;BME280;70137;56.482;9.154;2024-01-06T02:56:55;101590.94;;;-9.21;99.96
80585;BME280;70137;56.482;9.154;2024-01-06T02:59:21;101601.66;;;-9.08;100.00
80585;BME280;70137;56.482;9.154;2024-01-06T03:01:46;101595.72;;;-9.00;99.37
80585;BME280;70137;56.482;9.154;2024-01-06T03:04:11;101598.13;;;-8.92;100.00
80585;BME280;70137;56.482;9.154;2024-01-06T03:06:37;101603.94;;;-8.85;100.00
80585;BME280;70137;56.482;9.154;2024-01-06T03:09:02;101604.69;;;-8.80;100.00
80585;BME280;70137;56.482;9.154;2024-01-06T03:11:27;101603.81;;;-8.76;100.00
80585;BME280;70137;56.482;9.154;2024-01-06T03:13:53;101599.53;;;-8.71;100.00
80585;BME280;70137;56.482;9.154;2024-01-06T03:16:18;101598.69;;;-8.70;100.00
80585;BME280;70137;56.482;9.154;2024-01-06T03:18:43;101610.41;;;-8.68;100.00
80585;BME280;70137;56.482;9.154;2024-01-06T03:21:19;101604.56;;;-8.68;100.00
80585;BME280;70137;56.482;9.154;2024-01-06T03:23:45;101609.50;;;-8.63;100.00
80585;BME280;70137;56.482;9.154;2024-01-06T03:26:11;101613.63;;;-8.59;100.00
80585;BME280;70137;56.482;9.154;2024-01-06T03:28:36;101612.78;;;-8.57;100.00
80585;BME280;70137;56.482;9.154;2024-01-06T03:31:02;101619.44;;;-8.54;100.00
80585;BME280;70137;56.482;9.154;2024-01-06T03:33:27;101616.84;;;-8.50;100.00
80585;BME280;70137;56.482;9.154;2024-01-06T03:35:52;101619.31;;;-8.45;100.00
80585;BME280;70137;56.482;9.154;2024-01-06T03:38:18;101625.09;;;-8.39;100.00
80585;BME280;70137;56.482;9.154;2024-01-06T03:40:43;101624.97;;;-8.32;100.00
80585;BME280;70137;56.482;9.154;2024-01-06T03:43:08;101630.72;;;-8.24;100.00
80585;BME280;70137;56.482;9.154;2024-01-06T03:45:34;101635.69;;;-8.18;100.00
80585;BME280;70137;56.482;9.154;2024-01-06T03:47:59;101641.44;;;-8.10;100.00
80585;BME280;70137;56.482;9.154;2024-01-06T03:50:24;101632.94;;;-8.04;100.00
80585;BME280;70137;56.482;9.154;2024-01-06T03:52:49;101634.50;;;-7.96;100.00
80585;BME280;70137;56.482;9.154;2024-01-06T03:55:15;101635.25;;;-7.89;100.00
80585;BME280;70137;56.482;9.154;2024-01-06T03:57:41;101635.94;;;-7.83;100.00
80585;BME280;70137;56.482;9.154;2024-01-06T04:00:07;101631.63;;;-7.74;100.00
80585;BME280;70137;56.482;9.154;2024-01-06T04:02:33;101628.19;;;-7.69;100.00
80585;BME280;70137;56.482;9.154;2024-01-06T04:04:58;101633.09;;;-7.61;100.00
80585;BME280;70137;56.482;9.154;2024-01-06T04:07:24;101640.50;;;-7.52;100.00
80585;BME280;70137;56.482;9.154;2024-01-06T04:09:49;101649.59;;;-7.45;100.00
80585;BME280;70137;56.482;9.154;2024-01-06T04:12:14;101648.66;;;-7.38;100.00
80585;BME280;70137;56.482;9.154;2024-01-06T04:14:40;101651.06;;;-7.32;100.00
80585;BME280;70137;56.482;9.154;2024-01-06T04:17:05;101647.59;;;-7.26;100.00
80585;BME280;70137;56.482;9.154;2024-01-06T04:19:30;101654.22;;;-7.21;100.00
80585;BME280;70137;56.482;9.154;2024-01-06T04:21:56;101654.13;;;-7.16;100.00
80585;BME280;70137;56.482;9.154;2024-01-06T04:24:21;101661.53;;;-7.08;100.00
80585;BME280;70137;56.482;9.154;2024-01-06T04:26:49;101661.44;;;-7.02;100.00
80585;BME280;70137;56.482;9.154;2024-01-06T04:29:14;101663.03;;;-6.98;100.00
80585;BME280;70137;56.482;9.154;2024-01-06T04:31:40;101663.75;;;-6.92;100.00
80585;BME280;70137;56.482;9.154;2024-01-06T04:34:06;101668.66;;;-6.85;100.00
80585;BME280;70137;56.482;9.154;2024-01-06T04:36:31;101665.28;;;-6.83;100.00
80585;BME280;70137;56.482;9.154;2024-01-06T04:38:56;101666.88;;;-6.79;100.00
80585;BME280;70137;56.482;9.154;2024-01-06T04:41:22;101674.34;;;-6.76;100.00
80585;BME280;70137;56.482;9.154;2024-01-06T04:43:47;101676.84;;;-6.73;100.00
80585;BME280;70137;56.482;9.154;2024-01-06T04:46:12;101680.16;;;-6.71;100.00
80585;BME280;70137;56.482;9.154;2024-01-06T04:48:40;101685.09;;;-6.66;100.00
80585;BME280;70137;56.482;9.154;2024-01-06T04:51:06;101679.97;;;-6.61;100.00
80585;BME280;70137;56.482;9.154;2024-01-06T04:53:35;101677.34;;;-6.57;100.00
80585;BME280;70137;56.482;9.154;2024-01-06T04:56:00;101675.53;;;-6.50;100.00
80585;BME280;70137;56.482;9.154;2024-01-06T04:58:26;101681.34;;;-6.45;100.00
80585;BME280;70137;56.482;9.154;2024-01-06T05:00:51;101679.53;;;-6.40;100.00
80585;BME280;70137;56.482;9.154;2024-01-06T05:03:17;101681.16;;;-6.38;100.00
80585;BME280;70137;56.482;9.154;2024-01-06T05:05:43;101685.31;;;-6.35;100.00
80585;BME280;70137;56.482;9.154;2024-01-06T05:08:08;101679.38;;;-6.32;100.00
80585;BME280;70137;56.482;9.154;2024-01-06T05:10:34;101681.81;;;-6.29;100.00
80585;BME280;70137;56.482;9.154;2024-01-06T05:12:59;101682.59;;;-6.26;100.00
80585;BME280;70137;56.482;9.154;2024-01-06T05:15:25;101688.44;;;-6.24;100.00
80585;BME280;70137;56.482;9.154;2024-01-06T05:17:50;101695.16;;;-6.23;100.00
80585;BME280;70137;56.482;9.154;2024-01-06T05:20:15;101699.34;;;-6.22;100.00
80585;BME280;70137;56.482;9.154;2024-01-06T05:22:41;101700.13;;;-6.20;100.00
80585;BME280;70137;56.482;9.154;2024-01-06T05:25:06;101704.28;;;-6.17;100.00
80585;BME280;70137;56.482;9.154;2024-01-06T05:27:31;101705.94;;;-6.16;100.00
80585;BME280;70137;56.482;9.154;2024-01-06T05:29:57;101705.03;;;-6.14;100.00
80585;BME280;70137;56.482;9.154;2024-01-06T05:32:22;101706.72;;;-6.13;100.00
80585;BME280;70137;56.482;9.154;2024-01-06T05:34:48;101710.84;;;-6.10;100.00
80585;BME280;70137;56.482;9.154;2024-01-06T05:37:14;101713.34;;;-6.09;100.00
80585;BME280;70137;56.482;9.154;2024-01-06T05:39:39;101716.69;;;-6.07;100.00
80585;BME280;70137;56.482;9.154;2024-01-06T05:42:06;101717.47;;;-6.04;100.00
80585;BME280;70137;56.482;9.154;2024-01-06T05:44:31;101723.34;;;-6.04;100.00
80585;BME280;70137;56.482;9.154;2024-01-06T05:46:56;101730.84;;;-6.01;100.00
80585;BME280;70137;56.482;9.154;2024-01-06T05:49:22;101730.81;;;-5.99;100.00
80585;BME280;70137;56.482;9.154;2024-01-06T05:51:48;101729.94;;;-5.98;100.00
80585;BME280;70137;56.482;9.154;2024-01-06T05:54:14;101737.47;;;-5.95;100.00
80585;BME280;70137;56.482;9.154;2024-01-06T05:56:39;101743.34;;;-5.95;100.00
80585;BME280;70137;56.482;9.154;2024-01-06T05:59:04;101748.44;;;-5.96;100.00
80585;BME280;70137;56.482;9.154;2024-01-06T06:01:30;101753.41;;;-5.93;100.00
80585;BME280;70137;56.482;9.154;2024-01-06T06:03:55;101750.00;;;-5.92;100.00
80585;BME280;70137;56.482;9.154;2024-01-06T06:06:20;101751.69;;;-5.91;100.00
80585;BME280;70137;56.482;9.154;2024-01-06T06:08:46;101753.41;;;-5.93;100.00
80585;BME280;70137;56.482;9.154;2024-01-06T06:11:11;101756.00;;;-5.96;100.00
80585;BME280;70137;56.482;9.154;2024-01-06T06:13:40;101748.56;;;-6.02;100.00
80585;BME280;70137;56.482;9.154;2024-01-06T06:16:06;101754.56;;;-6.08;100.00
80585;BME280;70137;56.482;9.154;2024-01-06T06:18:32;101757.19;;;-6.13;100.00
80585;BME280;70137;56.482;9.154;2024-01-06T06:20:58;101752.25;;;-6.19;100.00
80585;BME280;70137;56.482;9.154;2024-01-06T06:23:24;101759.13;;;-6.25;100.00
80585;BME280;70137;56.482;9.154;2024-01-06T06:25:49;101762.59;;;-6.31;100.00
80585;BME280;70137;56.482;9.154;2024-01-06T06:28:14;101768.63;;;-6.37;100.00
80585;BME280;70137;56.482;9.154;2024-01-06T06:30:40;101773.75;;;-6.41;100.00
80585;BME280;70137;56.482;9.154;2024-01-06T06:33:05;101776.38;;;-6.47;100.00
80585;BME280;70137;56.482;9.154;2024-01-06T06:35:30;101785.72;;;-6.52;100.00
80585;BME280;70137;56.482;9.154;2024-01-06T06:37:56;101784.97;;;-6.57;100.00
80585;BME280;70137;56.482;9.154;2024-01-06T06:40:21;101795.94;;;-6.60;100.00
80585;BME280;70137;56.482;9.154;2024-01-06T06:42:46;101797.72;;;-6.64;100.00
80585;BME280;70137;56.482;9.154;2024-01-06T06:45:11;101798.59;;;-6.68;100.00
80585;BME280;70137;56.482;9.154;2024-01-06T06:47:37;101804.59;;;-6.73;100.00
80585;BME280;70137;56.482;9.154;2024-01-06T06:50:02;101816.41;;;-6.77;100.00
80585;BME280;70137;56.482;9.154;2024-01-06T06:52:28;101822.34;;;-6.79;100.00
80585;BME280;70137;56.482;9.154;2024-01-06T06:54:53;101821.59;;;-6.83;100.00
80585;BME280;70137;56.482;9.154;2024-01-06T06:57:18;101826.66;;;-6.84;100.00
80585;BME280;70137;56.482;9.154;2024-01-06T06:59:44;101825.00;;;-6.87;100.00
80585;BME280;70137;56.482;9.154;2024-01-06T07:02:10;101831.72;;;-6.87;100.00
80585;BME280;70137;56.482;9.154;2024-01-06T07:04:35;101830.97;;;-6.91;100.00
80585;BME280;70137;56.482;9.154;2024-01-06T07:07:01;101844.44;;;-6.95;100.00
80585;BME280;70137;56.482;9.154;2024-01-06T07:09:26;101841.19;;;-7.00;100.00
80585;BME280;70137;56.482;9.154;2024-01-06T07:11:51;101845.44;;;-7.02;100.00
80585;BME280;70137;56.482;9.154;2024-01-06T07:14:17;101851.34;;;-7.06;100.00
80585;BME280;70137;56.482;9.154;2024-01-06T07:16:42;101853.94;;;-7.09;100.00
80585;BME280;70137;56.482;9.154;2024-01-06T07:19:08;101852.31;;;-7.15;100.00
80585;BME280;70137;56.482;9.154;2024-01-06T07:21:33;101852.41;;;-7.19;100.00
80585;BME280;70137;56.482;9.154;2024-01-06T07:23:58;101865.00;;;-7.19;100.00
80585;BME280;70137;56.482;9.154;2024-01-06T07:26:24;101865.91;;;-7.22;99.89
80585;BME280;70137;56.482;9.154;2024-01-06T07:28:49;101877.66;;;-7.24;100.00
80585;BME280;70137;56.482;9.154;2024-01-06T07:31:14;101884.44;;;-7.28;100.00
80585;BME280;70137;56.482;9.154;2024-01-06T07:33:40;101882.81;;;-7.30;100.00
80585;BME280;70137;56.482;9.154;2024-01-06T07:36:05;101881.16;;;-7.33;100.00
80585;BME280;70137;56.482;9.154;2024-01-06T07:38:31;101892.06;;;-7.34;100.00
80585;BME280;70137;56.482;9.154;2024-01-06T07:40:56;101894.66;;;-7.38;99.50
80585;BME280;70137;56.482;9.154;2024-01-06T07:43:22;101893.88;;;-7.42;100.00
80585;BME280;70137;56.482;9.154;2024-01-06T07:45:47;101902.28;;;-7.44;99.65
80585;BME280;70137;56.482;9.154;2024-01-06T07:48:13;101912.38;;;-7.46;100.00
80585;BME280;70137;56.482;9.154;2024-01-06T07:50:39;101916.59;;;-7.46;100.00
80585;BME280;70137;56.482;9.154;2024-01-06T07:53:04;101915.75;;;-7.45;99.58
80585;BME280;70137;56.482;9.154;2024-01-06T07:55:29;101915.72;;;-7.44;100.00
80585;BME280;70137;56.482;9.154;2024-01-06T07:57:55;101914.88;;;-7.43;100.00
80585;BME280;70137;56.482;9.154;2024-01-06T08:00:20;101914.88;;;-7.44;99.71
80585;BME280;70137;56.482;9.154;2024-01-06T08:02:45;101909.03;;;-7.46;100.00
80585;BME280;70137;56.482;9.154;2024-01-06T08:05:11;101913.22;;;-7.45;100.00
80585;BME280;70137;56.482;9.154;2024-01-06T08:07:36;101922.47;;;-7.46;100.00
80585;BME280;70137;56.482;9.154;2024-01-06T08:10:02;101923.31;;;-7.47;100.00
80585;BME280;70137;56.482;9.154;2024-01-06T08:12:30;101926.66;;;-7.46;99.85
80585;BME280;70137;56.482;9.154;2024-01-06T08:14:56;101924.19;;;-7.48;100.00
80585;BME280;70137;56.482;9.154;2024-01-06T08:17:21;101931.72;;;-7.48;100.00
80585;BME280;70137;56.482;9.154;2024-01-06T08:19:47;101935.09;;;-7.47;100.00
80585;BME280;70137;56.482;9.154;2024-01-06T08:22:13;101946.00;;;-7.47;100.00
80585;BME280;70137;56.482;9.154;2024-01-06T08:24:38;101936.81;;;-7.51;100.00
80585;BME280;70137;56.482;9.154;2024-01-06T08:27:04;101939.38;;;-7.53;100.00
80585;BME280;70137;56.482;9.154;2024-01-06T08:29:29;101940.19;;;-7.54;100.00
80585;BME280;70137;56.482;9.154;2024-01-06T08:31:55;101946.94;;;-7.56;100.00
80585;BME280;70137;56.482;9.154;2024-01-06T08:34:20;101942.72;;;-7.55;99.97
80585;BME280;70137;56.482;9.154;2024-01-06T08:36:46;101944.38;;;-7.54;100.00
80585;BME280;70137;56.482;9.154;2024-01-06T08:39:11;101956.97;;;-7.51;100.00
80585;BME280;70137;56.482;9.154;2024-01-06T08:41:37;101960.31;;;-7.51;99.59
80585;BME280;70137;56.482;9.154;2024-01-06T08:44:03;101967.84;;;-7.49;99.77
80585;BME280;70137;56.482;9.154;2024-01-06T08:46:29;101971.22;;;-7.50;99.79
80585;BME280;70137;56.482;9.154;2024-01-06T08:48:55;101978.78;;;-7.50;99.74
80585;BME280;70137;56.482;9.154;2024-01-06T08:51:21;101986.34;;;-7.50;99.78
80585;BME280;70137;56.482;9.154;2024-01-06T08:53:46;101994.69;;;-7.48;100.00
80585;BME280;70137;56.482;9.154;2024-01-06T08:56:12;102005.59;;;-7.46;100.00
80585;BME280;70137;56.482;9.154;2024-01-06T08:58:37;102002.22;;;-7.45;100.00
80585;BME280;70137;56.482;9.154;2024-01-06T09:01:02;102008.94;;;-7.45;99.89
80585;BME280;70137;56.482;9.154;2024-01-06T09:03:28;102016.47;;;-7.44;100.00
80585;BME280;70137;56.482;9.154;2024-01-06T09:05:55;102020.69;;;-7.43;99.80
80585;BME280;70137;56.482;9.154;2024-01-06T09:08:21;102018.16;;;-7.43;99.74
80585;BME280;70137;56.482;9.154;2024-01-06T09:10:46;102029.91;;;-7.42;100.00
80585;BME280;70137;56.482;9.154;2024-01-06T09:13:11;102030.69;;;-7.38;99.84
80585;BME280;70137;56.482;9.154;2024-01-06T09:15:37;102026.44;;;-7.35;99.98
80585;BME280;70137;56.482;9.154;2024-01-06T09:18:02;102041.50;;;-7.29;100.00
80585;BME280;70137;56.482;9.154;2024-01-06T09:20:28;102033.88;;;-7.23;99.84
80585;BME280;70137;56.482;9.154;2024-01-06T09:22:53;102043.06;;;-7.18;100.00
80585;BME280;70137;56.482;9.154;2024-01-06T09:25:19;102052.25;;;-7.16;100.00
80585;BME280;70137;56.482;9.154;2024-01-06T09:27:44;102048.91;;;-7.13;100.00
80585;BME280;70137;56.482;9.154;2024-01-06T09:30:10;102053.88;;;-7.10;100.00
80585;BME280;70137;56.482;9.154;2024-01-06T09:32:36;102058.03;;;-7.06;100.00
80585;BME280;70137;56.482;9.154;2024-01-06T09:35:01;102061.34;;;-7.01;99.46
80585;BME280;70137;56.482;9.154;2024-01-06T09:37:26;102064.63;;;-6.96;100.00
80585;BME280;70137;56.482;9.154;2024-01-06T09:39:52;102061.25;;;-6.94;100.00
80585;BME280;70137;56.482;9.154;2024-01-06T09:42:17;102072.97;;;-6.91;99.74
80585;BME280;70137;56.482;9.154;2024-01-06T09:44:42;102067.06;;;-6.90;99.79
80585;BME280;70137;56.482;9.154;2024-01-06T09:47:11;102071.25;;;-6.89;99.93
80585;BME280;70137;56.482;9.154;2024-01-06T09:49:38;102070.38;;;-6.86;99.38
80585;BME280;70137;56.482;9.154;2024-01-06T09:52:11;102072.09;;;-6.88;99.46
80585;BME280;70137;56.482;9.154;2024-01-06T09:54:40;102077.09;;;-6.87;99.48
80585;BME280;70137;56.482;9.154;2024-01-06T09:57:08;102081.28;;;-6.86;99.12
80585;BME280;70137;56.482;9.154;2024-01-06T09:59:34;102077.97;;;-6.88;99.65
80585;BME280;70137;56.482;9.154;2024-01-06T10:02:03;102087.19;;;-6.87;98.99
80585;BME280;70137;56.482;9.154;2024-01-06T10:04:28;102081.28;;;-6.86;98.86
80585;BME280;70137;56.482;9.154;2024-01-06T10:06:54;102082.13;;;-6.84;98.74
80585;BME280;70137;56.482;9.154;2024-01-06T10:09:26;102084.66;;;-6.84;98.83
80585;BME280;70137;56.482;9.154;2024-01-06T10:11:55;102090.47;;;-6.79;98.61
80585;BME280;70137;56.482;9.154;2024-01-06T10:14:20;102083.66;;;-6.72;98.20
80585;BME280;70137;56.482;9.154;2024-01-06T10:16:46;102093.66;;;-6.68;98.24
80585;BME280;70137;56.482;9.154;2024-01-06T10:19:14;102091.97;;;-6.64;98.60
80585;BME280;70137;56.482;9.154;2024-01-06T10:21:39;102087.75;;;-6.64;97.97
80585;BME280;70137;56.482;9.154;2024-01-06T10:24:07;102091.94;;;-6.63;98.14
80585;BME280;70137;56.482;9.154;2024-01-06T10:26:33;102090.22;;;-6.60;98.09
80585;BME280;70137;56.482;9.154;2024-01-06T10:28:58;102091.88;;;-6.58;97.72
80585;BME280;70137;56.482;9.154;2024-01-06T10:31:25;102098.59;;;-6.58;97.27
80585;BME280;70137;56.482;9.154;2024-01-06T10:33:50;102098.59;;;-6.58;97.32
80585;BME280;70137;56.482;9.154;2024-01-06T10:36:16;102099.41;;;-6.55;97.09
80585;BME280;70137;56.482;9.154;2024-01-06T10:38:42;102102.66;;;-6.48;98.12
80585;BME280;70137;56.482;9.154;2024-01-06T10:41:09;102094.19;;;-6.43;97.35
80585;BME280;70137;56.482;9.154;2024-01-06T10:43:36;102101.69;;;-6.40;97.49
80585;BME280;70137;56.482;9.154;2024-01-06T10:46:09;102105.03;;;-6.38;96.84
80585;BME280;70137;56.482;9.154;2024-01-06T10:48:39;102092.41;;;-6.36;97.22
80585;BME280;70137;56.482;9.154;2024-01-06T10:51:08;102100.75;;;-6.31;97.26
80585;BME280;70137;56.482;9.154;2024-01-06T10:53:33;102102.31;;;-6.22;96.92
80585;BME280;70137;56.482;9.154;2024-01-06T10:56:03;102102.22;;;-6.18;97.15
80585;BME280;70137;56.482;9.154;2024-01-06T10:58:30;102102.22;;;-6.16;96.65
80585;BME280;70137;56.482;9.154;2024-01-06T11:00:59;102107.19;;;-6.12;97.18
80585;BME280;70137;56.482;9.154;2024-01-06T11:03:27;102113.00;;;-6.07;96.97
80585;BME280;70137;56.482;9.154;2024-01-06T11:05:54;102112.09;;;-6.02;97.17
80585;BME280;70137;56.482;9.154;2024-01-06T11:08:21;102122.97;;;-5.97;97.03
80585;BME280;70137;56.482;9.154;2024-01-06T11:10:47;102118.66;;;-5.92;97.18
80585;BME280;70137;56.482;9.154;2024-01-06T11:13:15;102125.28;;;-5.87;96.40
80585;BME280;70137;56.482;9.154;2024-01-06T11:15:50;102118.53;;;-5.86;96.83
80585;BME280;70137;56.482;9.154;2024-01-06T11:18:36;102115.06;;;-5.81;96.70
80585;BME280;70137;56.482;9.154;2024-01-06T11:23:40;102129.31;;;-5.75;96.37
80585;BME280;70137;56.482;9.154;2024-01-06T11:26:06;102124.13;;;-5.67;96.38
80585;BME280;70137;56.482;9.154;2024-01-06T11:28:43;102124.75;;;-5.55;96.77
80585;BME280;70137;56.482;9.154;2024-01-06T11:31:08;102128.81;;;-5.46;96.49
80585;BME280;70137;56.482;9.154;2024-01-06T11:33:43;102122.81;;;-5.40;96.39
80585;BME280;70137;56.482;9.154;2024-01-06T11:36:09;102123.63;;;-5.38;96.20
80585;BME280;70137;56.482;9.154;2024-01-06T11:38:39;102121.13;;;-5.40;96.27
80585;BME280;70137;56.482;9.154;2024-01-06T11:41:08;102118.59;;;-5.41;95.81
80585;BME280;70137;56.482;9.154;2024-01-06T11:43:37;102121.03;;;-5.35;96.41
80585;BME280;70137;56.482;9.154;2024-01-06T11:46:05;102117.47;;;-5.25;96.09
80585;BME280;70137;56.482;9.154;2024-01-06T11:48:32;102115.06;;;-5.30;96.52
80585;BME280;70137;56.482;9.154;2024-01-06T11:50:58;102108.38;;;-5.34;95.58
80585;BME280;70137;56.482;9.154;2024-01-06T11:53:26;102115.91;;;-5.32;96.38
80585;BME280;70137;56.482;9.154;2024-01-06T11:55:52;102123.34;;;-5.23;96.57
80585;BME280;70137;56.482;9.154;2024-01-06T11:58:18;102118.22;;;-5.19;95.80
80585;BME280;70137;56.482;9.154;2024-01-06T12:00:43;102120.69;;;-5.17;96.12
80585;BME280;70137;56.482;9.154;2024-01-06T12:03:09;102123.25;;;-5.19;95.87
80585;BME280;70137;56.482;9.154;2024-01-06T12:05:35;102122.44;;;-5.19;96.39
80585;BME280;70137;56.482;9.154;2024-01-06T12:08:02;102133.31;;;-5.15;96.60
80585;BME280;70137;56.482;9.154;2024-01-06T12:10:31;102134.13;;;-5.15;96.12
80585;BME280;70137;56.482;9.154;2024-01-06T12:13:05;102141.72;;;-5.15;95.82
80585;BME280;70137;56.482;9.154;2024-01-06T12:15:33;102132.53;;;-5.19;95.47
80585;BME280;70137;56.482;9.154;2024-01-06T12:17:58;102137.53;;;-5.16;95.06
80585;BME280;70137;56.482;9.154;2024-01-06T12:20:25;102139.97;;;-5.10;94.92
80585;BME280;70137;56.482;9.154;2024-01-06T12:22:52;102140.59;;;-4.99;95.29
80585;BME280;70137;56.482;9.154;2024-01-06T12:25:17;102141.31;;;-4.94;94.81
80585;BME280;70137;56.482;9.154;2024-01-06T12:27:44;102137.84;;;-4.88;94.76
80585;BME280;70137;56.482;9.154;2024-01-06T12:30:16;102136.94;;;-4.85;93.84
80585;BME280;70137;56.482;9.154;2024-01-06T12:32:44;102138.56;;;-4.81;94.01
80585;BME280;70137;56.482;9.154;2024-01-06T12:35:10;102138.44;;;-4.75;93.54
80585;BME280;70137;56.482;9.154;2024-01-06T12:37:37;102145.88;;;-4.68;94.12
80585;BME280;70137;56.482;9.154;2024-01-06T12:40:02;102137.22;;;-4.57;93.61
80585;BME280;70137;56.482;9.154;2024-01-06T12:42:28;102137.97;;;-4.54;93.69